Madrid Aeropuerto

latitud = 40° 28' 00''N | longitud = 003° 33' 20''W
667 metros sobre el nivel del mar |

Fecha, hora, temperatura, viento dirección y velocidad, humedad y presión.

  • 22-11-2017 09:00:00 | -0.70°C | Norte |2.00 km/h | 90.00% | 950.50 hPa
  • 22-11-2017 08:00:00 | -1.20°C | Norte |5.00 km/h | 92.00% | 950.20 hPa
  • 22-11-2017 07:00:00 | -0.50°C | Norte |8.00 km/h | 91.00% | 950.30 hPa
  • 22-11-2017 06:00:00 | -0.30°C | Norte |3.00 km/h | 90.00% | 950.40 hPa
  • 22-11-2017 05:00:00 | -0.40°C | Norte |6.00 km/h | 89.00% | 950.70 hPa
  • 22-11-2017 04:00:00 | 0.70°C | Norte |7.00 km/h | 86.00% | 950.80 hPa
  • 22-11-2017 03:00:00 | 1.10°C | Norte |5.00 km/h | 86.00% | 951.50 hPa
  • 22-11-2017 02:00:00 | 1.60°C | Norte |5.00 km/h | 82.00% | 951.80 hPa
  • 22-11-2017 01:00:00 | 2.10°C | Norte |7.00 km/h | 80.00% | 952.30 hPa
  • 22-11-2017 00:00:00 | 3.40°C | Noroeste |8.00 km/h | 74.00% | 952.40 hPa
  • 21-11-2017 23:00:00 | 4.50°C | Noroeste |6.00 km/h | 70.00% | 952.50 hPa
  • 21-11-2017 22:00:00 | 6.10°C | Noroeste |13.00 km/h | 64.00% | 952.50 hPa
  • 21-11-2017 21:00:00 | 7.50°C | Noroeste |6.00 km/h | 61.00% | 952.50 hPa
  • 21-11-2017 20:00:00 | 9.10°C | Sudeste |4.00 km/h | 53.00% | 952.40 hPa
  • 21-11-2017 19:00:00 | 10.20°C | Sudeste |2.00 km/h | 49.00% | 952.50 hPa
  • 21-11-2017 18:00:00 | 14.00°C | Sur |6.00 km/h | 39.00% | 952.20 hPa
  • 21-11-2017 17:00:00 | 17.40°C | Sur |6.00 km/h | 31.00% | 952.20 hPa
  • 21-11-2017 16:00:00 | 18.00°C | Sudeste |4.00 km/h | 30.00% | 952.30 hPa
  • 21-11-2017 15:00:00 | 17.30°C | Sudeste |3.00 km/h | 33.00% | 952.70 hPa
  • 21-11-2017 14:00:00 | 15.40°C | Oeste |3.00 km/h | 37.00% | 953.60 hPa
  • 21-11-2017 13:00:00 | 13.40°C | Sur |5.00 km/h | 42.00% | 954.50 hPa
  • 21-11-2017 12:00:00 | 10.10°C | Noroeste |5.00 km/h | 51.00% | 955.60 hPa
  • 21-11-2017 11:00:00 | 6.30°C | Norte |4.00 km/h | 62.00% | 956.00 hPa
  • 21-11-2017 10:00:00 | 3.50°C | Norte |5.00 km/h | 77.00% | 956.10 hPa
    • Datos gráficos mensuales en Madrid: